Time;durP1;ratioP1;P1;durP2;ratioP2;P2;SDS_P1;SDS_P2;PMS_P1;PMS_P2;Temp;Humidity;BMP_temperature;BMP_pressure;BME280_temperature;BME280_humidity;BME280_pressure;Samples;Min_cycle;Max_cycle;Signal;HPM_P1;HPM_P2
2022/10/30 00:01:55;;;;;;;22.23;11.15;;;14.90;99.90;;;;;;5034715;28;20033;-62
2022/10/30 00:04:21;;;;;;;21.38;10.40;;;14.90;99.90;;;;;;5028470;28;20091;-62
2022/10/30 00:06:47;;;;;;;20.85;9.95;;;14.90;99.90;;;;;;5029306;28;20038;-63
2022/10/30 00:09:13;;;;;;;24.80;10.45;;;14.90;99.90;;;;;;5029470;28;20389;-62
2022/10/30 00:11:40;;;;;;;18.88;10.98;;;14.90;99.90;;;;;;5019836;28;20050;-62
2022/10/30 00:14:06;;;;;;;24.40;10.95;;;14.90;99.90;;;;;;5033583;28;20048;-63
2022/10/30 00:16:32;;;;;;;21.83;11.05;;;14.90;99.90;;;;;;5026402;28;20065;-62
2022/10/30 00:18:58;;;;;;;23.00;10.73;;;14.90;99.90;;;;;;5034597;28;20083;-62
2022/10/30 00:21:23;;;;;;;22.73;11.00;;;14.90;99.90;;;;;;5033696;28;20045;-67
2022/10/30 00:23:51;;;;;;;22.73;11.23;;;14.80;99.90;;;;;;5029117;28;20033;-67
2022/10/30 00:26:19;;;;;;;20.80;10.35;;;14.80;99.90;;;;;;5030632;28;20117;-64
2022/10/30 00:28:52;;;;;;;22.00;11.05;;;14.80;99.90;;;;;;5031831;28;20238;-62
2022/10/30 00:31:18;;;;;;;21.95;10.65;;;14.80;99.90;;;;;;5025025;28;20052;-62
2022/10/30 00:33:47;;;;;;;20.40;10.30;;;14.80;99.90;;;;;;5031582;28;20049;-63
2022/10/30 00:36:13;;;;;;;21.55;10.20;;;14.70;99.90;;;;;;5031100;28;20068;-62
2022/10/30 00:38:38;;;;;;;20.45;10.48;;;14.80;99.90;;;;;;5023356;28;20117;-62
2022/10/30 00:41:04;;;;;;;20.40;10.77;;;14.80;99.90;;;;;;5032200;28;20546;-62
2022/10/30 00:43:36;;;;;;;24.88;11.00;;;14.80;99.90;;;;;;5033801;28;20037;-62
2022/10/30 00:46:06;;;;;;;;;;;14.80;99.90;;;;;;5023427;28;20064;-63
2022/10/30 00:48:32;;;;;;;18.65;10.43;;;14.70;99.90;;;;;;5033008;28;19917;-63
2022/10/30 00:51:00;;;;;;;24.55;10.95;;;14.80;99.90;;;;;;5035741;28;20098;-62
2022/10/30 00:53:26;;;;;;;22.02;11.00;;;14.70;99.90;;;;;;5026304;28;20389;-62
2022/10/30 00:55:56;;;;;;;22.63;9.95;;;14.70;99.90;;;;;;5024512;28;20073;-62
2022/10/30 00:58:29;;;;;;;23.08;11.10;;;14.70;99.90;;;;;;5018763;28;20231;-62
2022/10/30 01:00:59;;;;;;;19.65;9.90;;;14.70;99.90;;;;;;5022439;28;20172;-62
2022/10/30 01:03:26;;;;;;;20.65;10.45;;;14.70;99.90;;;;;;5023978;28;20455;-62
2022/10/30 01:05:57;;;;;;;20.55;10.55;;;14.70;99.90;;;;;;5029010;28;20074;-63
2022/10/30 01:08:23;;;;;;;16.70;10.60;;;14.70;99.90;;;;;;5030430;28;20044;-63
2022/10/30 01:10:49;;;;;;;25.08;10.68;;;14.70;99.90;;;;;;5027455;28;20392;-63
2022/10/30 01:13:17;;;;;;;20.40;10.48;;;14.70;99.90;;;;;;5031000;28;20120;-63
2022/10/30 01:15:57;;;;;;;20.73;10.02;;;14.60;99.90;;;;;;5020557;28;20045;-63
2022/10/30 01:18:56;;;;;;;20.77;10.27;;;14.60;99.90;;;;;;5023262;28;20057;-63
2022/10/30 01:21:49;;;;;;;23.02;10.68;;;14.60;99.90;;;;;;5016807;28;20110;-63
2022/10/30 01:24:53;;;;;;;19.08;10.93;;;14.60;99.90;;;;;;5026512;28;20128;-63
2022/10/30 01:27:56;;;;;;;23.98;11.18;;;14.60;99.90;;;;;;4981218;28;20049;-63
2022/10/30 01:31:16;;;;;;;19.95;9.82;;;14.60;99.90;;;;;;5033524;28;20048;-63
2022/10/30 01:34:06;;;;;;;18.70;10.48;;;14.60;99.90;;;;;;4935323;29;20146;-63
2022/10/30 01:36:59;;;;;;;20.25;10.48;;;14.50;99.90;;;;;;5020381;28;20128;-63
2022/10/30 01:39:34;;;;;;;23.20;10.65;;;14.50;99.90;;;;;;5019364;28;20038;-63
2022/10/30 01:42:06;;;;;;;22.98;10.63;;;14.50;99.90;;;;;;5019423;28;20496;-63
2022/10/30 01:44:32;;;;;;;23.00;10.70;;;14.40;99.90;;;;;;5018327;28;20048;-63
2022/10/30 01:47:13;;;;;;;20.00;9.95;;;14.50;99.90;;;;;;5026006;28;20471;-63
2022/10/30 01:49:54;;;;;;;20.88;10.23;;;14.50;99.90;;;;;;5021671;28;20308;-63
2022/10/30 01:53:00;;;;;;;19.95;11.05;;;14.50;99.90;;;;;;5025898;28;20038;-63
2022/10/30 01:55:40;;;;;;;18.38;9.98;;;14.50;99.90;;;;;;4963639;28;20142;-63
2022/10/30 01:58:18;;;;;;;23.50;11.05;;;14.50;99.90;;;;;;5022542;28;20083;-63
2022/10/30 02:00:48;;;;;;;26.85;11.13;;;14.50;99.90;;;;;;5023187;28;20049;-63
2022/10/30 02:03:14;;;;;;;22.60;11.52;;;14.40;99.90;;;;;;5027839;28;20029;-63
2022/10/30 02:05:48;;;;;;;20.38;11.43;;;14.50;99.90;;;;;;5019892;28;20378;-63
2022/10/30 02:08:13;;;;;;;20.85;10.73;;;14.50;99.90;;;;;;5023080;28;20037;-63
2022/10/30 02:10:42;;;;;;;18.52;10.88;;;14.40;99.90;;;;;;5024291;28;20041;-63
2022/10/30 02:13:07;;;;;;;25.60;11.13;;;14.40;99.90;;;;;;5015354;28;20041;-63
2022/10/30 02:15:34;;;;;;;17.58;9.75;;;14.40;99.90;;;;;;5025386;28;20045;-63
2022/10/30 02:17:59;;;;;;;25.23;11.57;;;14.40;99.90;;;;;;5024248;28;20087;-63
2022/10/30 02:20:26;;;;;;;20.05;11.00;;;14.40;99.90;;;;;;5023715;28;20046;-63
2022/10/30 02:22:51;;;;;;;20.15;10.40;;;14.40;99.90;;;;;;5023895;28;20029;-63
2022/10/30 02:25:17;;;;;;;15.85;9.80;;;14.30;99.90;;;;;;5028246;28;20036;-63
2022/10/30 02:27:42;;;;;;;24.30;10.98;;;14.30;99.90;;;;;;5026069;28;20052;-63
2022/10/30 02:30:09;;;;;;;22.30;10.77;;;14.20;99.90;;;;;;5018975;28;20400;-63
2022/10/30 02:32:34;;;;;;;19.35;11.15;;;14.20;99.90;;;;;;5020104;28;20485;-63
2022/10/30 02:35:00;;;;;;;21.70;10.52;;;14.20;99.90;;;;;;5023640;28;20036;-63
2022/10/30 02:37:26;;;;;;;21.45;10.63;;;14.20;99.90;;;;;;5029076;28;20037;-63
2022/10/30 02:39:52;;;;;;;28.70;12.40;;;14.20;99.90;;;;;;5024213;28;20034;-63
2022/10/30 02:42:18;;;;;;;19.90;11.05;;;14.10;99.90;;;;;;5022577;28;20079;-63
2022/10/30 02:44:43;;;;;;;19.55;11.98;;;14.10;99.90;;;;;;5022507;28;20048;-63
2022/10/30 02:47:09;;;;;;;21.20;10.65;;;14.10;99.90;;;;;;5024804;28;20439;-63
2022/10/30 02:49:36;;;;;;;20.60;10.48;;;14.10;99.90;;;;;;5019430;28;20060;-63
2022/10/30 02:52:01;;;;;;;18.70;9.98;;;14.10;99.90;;;;;;5016537;28;20120;-63
2022/10/30 02:54:27;;;;;;;17.77;10.98;;;14.20;99.90;;;;;;5020207;28;20037;-63
2022/10/30 02:56:52;;;;;;;24.35;11.05;;;14.10;99.90;;;;;;5022070;28;20032;-63
2022/10/30 02:59:19;;;;;;;20.83;10.32;;;14.10;99.90;;;;;;5028423;28;20071;-63
2022/10/30 03:01:45;;;;;;;16.52;9.95;;;14.10;99.90;;;;;;5027697;28;20485;-63
2022/10/30 03:04:11;;;;;;;21.52;10.90;;;14.10;99.90;;;;;;5025707;28;20281;-63
2022/10/30 03:06:36;;;;;;;23.00;11.30;;;14.10;99.90;;;;;;5018822;28;20042;-63
2022/10/30 03:09:02;;;;;;;19.92;11.38;;;14.00;99.90;;;;;;5029742;28;20033;-63
2022/10/30 03:11:28;;;;;;;20.92;10.35;;;14.00;99.90;;;;;;5027626;28;20448;-63
2022/10/30 03:13:54;;;;;;;22.50;11.02;;;14.00;99.90;;;;;;5027043;28;20197;-63
2022/10/30 03:16:25;;;;;;;22.10;11.05;;;14.00;99.90;;;;;;5019349;28;20120;-63
2022/10/30 03:18:51;;;;;;;22.33;10.67;;;14.00;99.90;;;;;;5026210;28;20104;-63
2022/10/30 03:21:20;;;;;;;19.85;10.27;;;14.00;99.90;;;;;;5022242;28;20034;-63
2022/10/30 03:23:45;;;;;;;22.65;11.82;;;14.00;99.90;;;;;;5018588;28;20498;-63
2022/10/30 03:26:11;;;;;;;24.70;10.48;;;13.90;99.90;;;;;;5023263;28;20061;-63
2022/10/30 03:28:37;;;;;;;20.58;10.07;;;14.00;99.90;;;;;;5020275;28;20042;-63
2022/10/30 03:31:05;;;;;;;17.67;10.05;;;13.90;99.90;;;;;;5021420;28;20116;-63
2022/10/30 03:33:32;;;;;;;20.50;10.57;;;13.90;99.90;;;;;;5027061;28;20107;-63
2022/10/30 03:35:58;;;;;;;23.10;10.82;;;13.90;99.90;;;;;;5019165;28;20037;-63
2022/10/30 03:38:23;;;;;;;15.20;9.73;;;13.90;99.90;;;;;;5025017;28;20396;-63
2022/10/30 03:40:49;;;;;;;21.60;11.18;;;13.90;99.90;;;;;;5020388;28;20030;-63
2022/10/30 03:43:15;;;;;;;21.55;10.35;;;13.90;99.90;;;;;;5021552;28;20459;-63
2022/10/30 03:45:49;;;;;;;23.73;10.85;;;13.80;99.90;;;;;;5025926;28;20040;-63
2022/10/30 03:48:16;;;;;;;21.23;11.07;;;13.80;99.90;;;;;;5044536;28;20583;-63
2022/10/30 03:50:42;;;;;;;18.02;10.73;;;13.80;99.90;;;;;;5024790;28;20087;-63
2022/10/30 03:53:08;;;;;;;22.92;10.75;;;13.70;99.90;;;;;;5023156;28;20109;-63
2022/10/30 03:55:33;;;;;;;21.20;10.73;;;13.80;99.90;;;;;;5025172;28;20044;-63
2022/10/30 03:57:59;;;;;;;19.52;10.93;;;13.70;99.90;;;;;;5029490;28;20034;-63
2022/10/30 04:00:24;;;;;;;21.13;10.35;;;13.70;99.90;;;;;;5029511;28;20029;-63
2022/10/30 04:02:51;;;;;;;19.90;10.50;;;13.70;99.90;;;;;;5025188;28;20048;-63
2022/10/30 04:05:18;;;;;;;19.30;10.52;;;13.70;99.90;;;;;;5023299;28;20244;-63
2022/10/30 04:07:44;;;;;;;17.27;10.52;;;13.70;99.90;;;;;;5018468;28;20136;-63
2022/10/30 04:10:11;;;;;;;17.25;10.27;;;13.70;99.90;;;;;;5019785;28;20555;-63
2022/10/30 04:12:37;;;;;;;19.75;10.82;;;13.70;99.90;;;;;;5026932;28;20129;-63
2022/10/30 04:15:04;;;;;;;20.00;10.52;;;13.70;99.90;;;;;;5028662;28;20034;-62
2022/10/30 04:17:30;;;;;;;18.38;10.27;;;13.70;99.90;;;;;;5021035;28;20503;-64
2022/10/30 04:19:56;;;;;;;20.08;10.77;;;13.60;99.90;;;;;;5017379;28;20053;-65
2022/10/30 04:22:22;;;;;;;19.30;10.77;;;13.70;99.90;;;;;;5019285;28;20506;-64
2022/10/30 04:24:50;;;;;;;21.50;10.63;;;13.60;99.90;;;;;;5021221;28;20029;-64
2022/10/30 04:27:16;;;;;;;21.70;11.27;;;13.60;99.90;;;;;;5026926;28;20084;-64
2022/10/30 04:29:41;;;;;;;20.42;10.95;;;13.70;99.90;;;;;;5026572;28;20042;-63
2022/10/30 04:32:08;;;;;;;16.25;10.63;;;13.70;99.90;;;;;;5027548;28;20103;-64
2022/10/30 04:34:34;;;;;;;20.10;10.57;;;13.50;99.90;;;;;;5024137;28;20145;-64
2022/10/30 04:36:59;;;;;;;20.92;11.45;;;13.60;99.90;;;;;;5022369;28;21401;-62
2022/10/30 04:39:25;;;;;;;23.15;10.75;;;13.60;99.90;;;;;;5025097;28;20053;-64
2022/10/30 04:41:51;;;;;;;18.40;10.65;;;13.50;99.90;;;;;;5023655;28;20049;-64
2022/10/30 04:44:16;;;;;;;20.83;10.93;;;13.60;99.90;;;;;;5018552;28;20033;-64
2022/10/30 04:46:42;;;;;;;22.65;11.50;;;13.60;99.90;;;;;;5031844;28;20038;-63
2022/10/30 04:49:08;;;;;;;19.15;10.70;;;13.60;99.90;;;;;;5023998;28;20523;-64
2022/10/30 04:51:33;;;;;;;23.75;10.63;;;13.60;99.90;;;;;;5017886;28;20034;-64
2022/10/30 04:53:59;;;;;;;18.77;11.48;;;13.60;99.90;;;;;;5017483;28;20120;-64
2022/10/30 04:56:24;;;;;;;22.48;11.15;;;13.60;99.90;;;;;;5022896;28;20110;-64
2022/10/30 04:58:51;;;;;;;19.90;10.90;;;13.60;99.90;;;;;;5030000;28;20040;-62
2022/10/30 05:01:17;;;;;;;22.90;11.15;;;13.60;99.90;;;;;;5032432;28;20052;-64
2022/10/30 05:03:43;;;;;;;26.42;11.30;;;13.60;99.90;;;;;;5017019;28;20477;-64
2022/10/30 05:06:35;;;;;;;18.67;10.88;;;13.60;99.90;;;;;;5029329;28;20470;-63
2022/10/30 05:09:00;;;;;;;19.70;10.60;;;13.60;99.90;;;;;;5022400;28;20046;-63
2022/10/30 05:11:26;;;;;;;20.05;10.93;;;13.60;99.90;;;;;;5030751;28;20385;-64
2022/10/30 05:13:52;;;;;;;24.13;11.07;;;13.60;99.90;;;;;;5029177;28;20037;-64
2022/10/30 05:16:17;;;;;;;22.13;11.48;;;13.60;99.90;;;;;;5018401;28;20070;-64
2022/10/30 05:18:43;;;;;;;18.30;10.75;;;13.50;99.90;;;;;;5027909;28;20120;-63
2022/10/30 05:21:08;;;;;;;21.80;11.55;;;13.60;99.90;;;;;;5030035;28;20033;-64
2022/10/30 05:23:34;;;;;;;22.75;10.98;;;13.50;99.90;;;;;;5030503;28;20037;-64
2022/10/30 05:26:00;;;;;;;19.38;10.27;;;13.50;99.90;;;;;;5032770;28;20029;-65
2022/10/30 05:28:26;;;;;;;17.40;10.48;;;13.50;99.90;;;;;;5031789;28;20033;-63
2022/10/30 05:30:52;;;;;;;26.58;11.07;;;13.40;99.90;;;;;;5017499;28;20037;-64
2022/10/30 05:33:18;;;;;;;25.42;10.43;;;13.40;99.90;;;;;;5023079;28;20034;-64
2022/10/30 05:35:44;;;;;;;23.10;11.07;;;13.40;99.90;;;;;;5018477;28;20476;-63
2022/10/30 05:38:10;;;;;;;22.38;11.63;;;13.40;99.90;;;;;;5023241;28;20404;-64
2022/10/30 05:40:36;;;;;;;20.33;11.05;;;13.40;99.90;;;;;;5020297;28;20049;-64
2022/10/30 05:43:03;;;;;;;17.83;10.13;;;13.40;99.90;;;;;;5023164;28;20041;-65
2022/10/30 05:45:29;;;;;;;17.05;10.82;;;13.40;99.90;;;;;;5026711;28;20548;-64
2022/10/30 05:47:56;;;;;;;22.92;11.43;;;13.40;99.90;;;;;;5023939;28;20120;-64
2022/10/30 05:50:22;;;;;;;20.88;10.25;;;13.30;99.90;;;;;;5031377;28;20763;-64
2022/10/30 05:52:47;;;;;;;24.77;11.00;;;13.30;99.90;;;;;;5023233;28;20267;-64
2022/10/30 05:55:16;;;;;;;20.45;11.70;;;13.30;99.90;;;;;;5025264;28;20038;-64
2022/10/30 05:57:41;;;;;;;21.25;11.27;;;13.30;99.90;;;;;;5027030;28;20493;-63
2022/10/30 06:00:08;;;;;;;23.10;12.32;;;13.30;99.90;;;;;;5015864;28;20065;-64
2022/10/30 06:02:33;;;;;;;21.83;10.70;;;13.30;99.90;;;;;;5025444;28;20057;-64
2022/10/30 06:04:59;;;;;;;22.95;11.65;;;13.30;99.90;;;;;;5021974;28;20042;-64
2022/10/30 06:07:24;;;;;;;22.98;11.18;;;13.30;99.90;;;;;;5017725;28;20796;-64
2022/10/30 06:09:50;;;;;;;20.95;10.73;;;13.30;99.90;;;;;;5024228;28;20127;-63
2022/10/30 06:12:16;;;;;;;22.52;11.50;;;13.30;99.90;;;;;;5024527;28;20037;-64
2022/10/30 06:14:41;;;;;;;19.58;11.52;;;13.30;99.90;;;;;;5021878;28;20042;-65
2022/10/30 06:17:07;;;;;;;26.48;11.70;;;13.30;99.90;;;;;;5027806;28;20063;-64
2022/10/30 06:19:32;;;;;;;24.27;11.60;;;13.30;99.90;;;;;;5023334;28;20147;-63
2022/10/30 06:21:58;;;;;;;23.35;11.40;;;13.30;99.90;;;;;;5023623;28;20412;-64
2022/10/30 06:24:23;;;;;;;21.42;11.50;;;13.30;99.90;;;;;;5019857;28;20069;-65
2022/10/30 06:26:49;;;;;;;20.00;11.77;;;13.20;99.90;;;;;;5019016;28;20034;-64
2022/10/30 06:29:15;;;;;;;22.70;11.43;;;13.20;99.90;;;;;;5020793;28;20056;-64
2022/10/30 06:31:41;;;;;;;21.00;11.57;;;13.20;99.90;;;;;;5025912;28;20045;-63
2022/10/30 06:34:07;;;;;;;19.73;10.65;;;13.20;99.90;;;;;;5027348;28;20041;-64
2022/10/30 06:36:32;;;;;;;22.35;12.15;;;13.20;99.90;;;;;;5022403;28;20104;-64
2022/10/30 06:38:58;;;;;;;19.95;11.73;;;13.20;99.90;;;;;;5013805;28;20088;-64
2022/10/30 06:41:23;;;;;;;18.80;11.27;;;13.20;99.90;;;;;;5024545;28;20068;-64
2022/10/30 06:43:49;;;;;;;20.02;12.10;;;13.10;99.90;;;;;;5027569;28;20120;-63
2022/10/30 06:46:15;;;;;;;18.50;11.93;;;13.10;99.90;;;;;;5029220;28;20041;-64
2022/10/30 06:48:40;;;;;;;22.77;11.70;;;13.10;99.90;;;;;;5020691;28;20408;-64
2022/10/30 06:51:06;;;;;;;26.58;12.30;;;13.10;99.90;;;;;;5024591;28;20123;-64
2022/10/30 06:53:32;;;;;;;21.88;12.75;;;13.10;99.90;;;;;;5029645;28;20415;-63
2022/10/30 06:55:59;;;;;;;23.63;11.82;;;13.20;99.90;;;;;;5021019;28;20041;-63
2022/10/30 06:58:26;;;;;;;19.77;12.65;;;13.20;99.90;;;;;;5021897;28;20087;-64
2022/10/30 07:00:52;;;;;;;24.48;12.25;;;13.20;99.90;;;;;;5017497;28;20580;-63
2022/10/30 07:03:18;;;;;;;25.17;12.02;;;13.20;99.90;;;;;;5024762;28;20554;-64
2022/10/30 07:05:44;;;;;;;20.85;12.00;;;13.20;99.90;;;;;;5037795;28;20033;-64
2022/10/30 07:08:09;;;;;;;21.20;12.95;;;13.20;99.90;;;;;;5024332;28;20037;-61
2022/10/30 07:10:35;;;;;;;24.50;13.32;;;13.20;99.90;;;;;;5027267;28;20420;-62
2022/10/30 07:13:01;;;;;;;24.83;12.85;;;13.20;99.90;;;;;;5018708;28;20108;-62
2022/10/30 07:15:27;;;;;;;23.13;14.10;;;13.20;99.90;;;;;;5029881;28;20035;-63
2022/10/30 07:17:57;;;;;;;37.78;20.88;;;13.20;99.90;;;;;;5014979;28;20069;-65
2022/10/30 07:20:24;;;;;;;43.25;23.48;;;13.20;99.90;;;;;;5022960;28;20036;-62
2022/10/30 07:22:50;;;;;;;45.35;24.80;;;13.20;99.90;;;;;;5041837;28;20124;-65
2022/10/30 07:25:16;;;;;;;32.03;20.33;;;13.20;99.90;;;;;;5024879;28;20460;-61
2022/10/30 07:27:50;;;;;;;25.88;16.33;;;13.30;99.90;;;;;;5030015;28;20041;-61
2022/10/30 07:30:18;;;;;;;32.90;18.08;;;13.30;99.90;;;;;;5025300;28;20053;-61
2022/10/30 07:32:44;;;;;;;27.88;17.77;;;13.30;99.90;;;;;;5028596;28;20034;-61
2022/10/30 07:35:12;;;;;;;25.83;15.45;;;13.20;99.90;;;;;;5024742;28;20060;-62
2022/10/30 07:37:38;;;;;;;23.13;14.85;;;13.30;99.90;;;;;;5022046;28;20029;-62
2022/10/30 07:40:04;;;;;;;23.90;14.38;;;13.30;99.90;;;;;;5024595;28;20033;-62
2022/10/30 07:42:31;;;;;;;23.73;13.80;;;13.30;99.90;;;;;;5016029;28;20459;-62
2022/10/30 07:44:57;;;;;;;27.45;13.93;;;13.30;99.90;;;;;;5022451;28;20045;-66
2022/10/30 07:47:22;;;;;;;24.00;13.30;;;13.30;99.90;;;;;;5016307;28;20599;-61
2022/10/30 07:49:48;;;;;;;22.08;13.77;;;13.30;99.90;;;;;;5020736;28;20076;-61
2022/10/30 07:52:13;;;;;;;26.83;13.88;;;13.30;99.90;;;;;;5014978;28;20030;-62
2022/10/30 07:54:39;;;;;;;24.85;13.65;;;13.30;99.90;;;;;;5016320;28;20042;-66
2022/10/30 07:57:04;;;;;;;24.80;13.45;;;13.30;99.90;;;;;;5025667;28;20034;-62
2022/10/30 07:59:30;;;;;;;23.85;14.43;;;13.20;99.90;;;;;;5023992;28;20033;-62
2022/10/30 08:01:56;;;;;;;29.02;15.10;;;13.40;99.90;;;;;;5023444;28;20136;-62
2022/10/30 08:04:21;;;;;;;21.50;13.52;;;13.40;99.90;;;;;;5026172;28;20034;-64
2022/10/30 08:06:47;;;;;;;26.15;13.65;;;13.40;99.90;;;;;;5021884;28;20703;-62
2022/10/30 08:09:12;;;;;;;28.75;14.30;;;13.50;99.90;;;;;;5023510;28;20037;-66
2022/10/30 08:11:38;;;;;;;23.58;13.85;;;13.50;99.90;;;;;;5022945;28;20043;-62
2022/10/30 08:14:04;;;;;;;28.00;14.85;;;13.50;99.90;;;;;;5030294;28;20052;-64
2022/10/30 08:16:29;;;;;;;23.45;13.88;;;13.50;99.90;;;;;;5026420;28;20107;-61
2022/10/30 08:18:55;;;;;;;28.00;14.68;;;13.60;99.90;;;;;;5031885;28;20399;-61
2022/10/30 08:21:21;;;;;;;25.20;14.70;;;13.60;99.90;;;;;;5031538;28;20114;-62
2022/10/30 08:23:46;;;;;;;27.25;15.02;;;13.60;99.90;;;;;;5029173;28;20111;-61
2022/10/30 08:26:13;;;;;;;28.20;14.50;;;13.70;99.90;;;;;;5021952;28;20022;-62
2022/10/30 08:28:38;;;;;;;32.83;14.80;;;13.70;99.90;;;;;;5023135;28;20069;-61
2022/10/30 08:31:04;;;;;;;22.25;15.20;;;13.70;99.90;;;;;;5029046;28;20453;-65
2022/10/30 08:33:30;;;;;;;28.65;15.68;;;13.70;99.90;;;;;;5028639;28;20041;-66
2022/10/30 08:35:58;;;;;;;26.75;14.45;;;13.70;99.90;;;;;;5024692;28;20113;-61
2022/10/30 08:38:24;;;;;;;25.27;16.02;;;13.80;99.90;;;;;;5019785;28;20037;-66
2022/10/30 08:40:51;;;;;;;26.90;14.43;;;13.80;99.90;;;;;;5029921;28;20073;-65
2022/10/30 08:43:19;;;;;;;33.60;15.35;;;13.90;99.90;;;;;;5022225;28;20510;-64
2022/10/30 08:45:45;;;;;;;28.00;14.95;;;13.90;99.90;;;;;;5024514;28;20046;-62
2022/10/30 08:48:13;;;;;;;31.77;15.02;;;13.90;99.90;;;;;;5028757;28;20056;-64
2022/10/30 08:50:39;;;;;;;32.63;15.63;;;14.00;99.90;;;;;;5032171;28;20049;-63
2022/10/30 08:53:06;;;;;;;26.90;15.30;;;14.00;99.90;;;;;;5028626;28;20037;-61
2022/10/30 08:55:33;;;;;;;24.50;14.93;;;14.00;99.90;;;;;;5020570;28;20038;-62
2022/10/30 08:57:59;;;;;;;27.50;15.63;;;14.10;99.90;;;;;;5021963;28;20060;-61
2022/10/30 09:00:25;;;;;;;31.00;15.85;;;14.10;99.90;;;;;;5028312;28;20045;-65
2022/10/30 09:02:51;;;;;;;26.15;16.05;;;14.20;99.90;;;;;;5013608;28;20429;-62
2022/10/30 09:05:17;;;;;;;26.13;15.85;;;14.30;99.90;;;;;;5020888;28;20061;-63
2022/10/30 09:07:43;;;;;;;27.63;16.13;;;14.30;99.90;;;;;;5031874;28;20049;-61
2022/10/30 09:10:09;;;;;;;30.23;16.55;;;14.30;99.90;;;;;;5029251;28;20310;-61
2022/10/30 09:12:34;;;;;;;32.45;16.67;;;14.40;99.90;;;;;;5022042;28;20048;-61
2022/10/30 09:15:00;;;;;;;26.45;15.70;;;14.50;99.90;;;;;;5033277;28;20037;-61
2022/10/30 09:17:25;;;;;;;28.27;15.95;;;14.50;99.90;;;;;;5020611;28;20080;-62
2022/10/30 09:19:51;;;;;;;24.13;15.75;;;14.60;99.90;;;;;;5026610;28;20087;-61
2022/10/30 09:22:17;;;;;;;29.33;15.82;;;14.70;99.90;;;;;;5032560;28;20036;-62
2022/10/30 09:24:43;;;;;;;28.15;16.23;;;14.70;99.90;;;;;;5017524;28;20046;-62
2022/10/30 09:27:08;;;;;;;27.27;16.15;;;14.70;99.90;;;;;;5031740;28;20033;-62
2022/10/30 09:29:34;;;;;;;29.17;15.98;;;14.80;99.90;;;;;;5031911;28;20124;-63
2022/10/30 09:32:01;;;;;;;27.77;15.70;;;14.80;99.90;;;;;;5024490;28;20048;-62
2022/10/30 09:34:27;;;;;;;26.88;15.75;;;15.00;99.90;;;;;;5032868;28;20097;-61
2022/10/30 09:36:53;;;;;;;27.02;16.05;;;15.00;99.90;;;;;;5018043;28;20542;-61
2022/10/30 09:39:19;;;;;;;27.35;16.67;;;15.00;99.90;;;;;;5025108;28;20034;-62
2022/10/30 09:42:03;;;;;;;29.25;16.35;;;15.10;99.90;;;;;;5015994;28;20125;-63
2022/10/30 09:45:06;;;;;;;31.75;17.00;;;15.20;99.90;;;;;;5043525;28;20089;-63
2022/10/30 09:47:41;;;;;;;26.63;16.48;;;15.20;99.90;;;;;;5020691;28;20047;-61
2022/10/30 09:50:24;;;;;;;33.42;16.65;;;15.30;99.90;;;;;;5029976;28;20038;-63
2022/10/30 09:53:24;;;;;;;26.50;16.17;;;15.40;99.90;;;;;;5016156;28;20041;-62
2022/10/30 09:56:05;;;;;;;29.73;15.73;;;15.50;99.90;;;;;;5023521;28;20079;-61
2022/10/30 09:58:51;;;;;;;29.45;16.25;;;15.60;99.90;;;;;;5029956;28;20048;-64
2022/10/30 10:01:26;;;;;;;31.27;16.27;;;15.60;99.90;;;;;;5029896;28;20466;-64
2022/10/30 10:04:25;;;;;;;30.85;15.73;;;15.70;99.90;;;;;;5027370;28;20160;-61
2022/10/30 10:07:01;;;;;;;31.13;14.73;;;15.80;99.90;;;;;;5021277;28;20435;-63
2022/10/30 10:09:30;;;;;;;28.20;15.52;;;15.90;99.90;;;;;;5030787;28;20151;-62
2022/10/30 10:12:06;;;;;;;30.40;15.63;;;16.00;99.90;;;;;;5026224;28;20092;-62
2022/10/30 10:14:36;;;;;;;26.63;15.20;;;16.00;99.90;;;;;;5028768;28;20048;-65
2022/10/30 10:17:04;;;;;;;31.05;16.25;;;16.00;99.90;;;;;;5028970;28;20116;-61
2022/10/30 10:19:59;;;;;;;33.78;15.82;;;16.10;99.90;;;;;;5030193;28;20041;-62
2022/10/30 10:22:35;;;;;;;29.63;16.65;;;16.20;99.90;;;;;;5019851;28;20045;-65
2022/10/30 10:25:05;;;;;;;23.83;14.55;;;16.20;99.90;;;;;;5013851;28;20034;-62
2022/10/30 10:27:51;;;;;;;32.08;14.48;;;16.30;99.90;;;;;;5026771;28;20102;-62
2022/10/30 10:30:24;;;;;;;26.48;14.10;;;16.40;99.90;;;;;;5026040;28;20068;-62
2022/10/30 10:33:10;;;;;;;29.85;15.90;;;16.50;99.90;;;;;;5031742;28;20069;-62
2022/10/30 10:35:45;;;;;;;24.58;14.00;;;16.60;99.90;;;;;;5017862;28;20073;-63
2022/10/30 10:38:48;;;;;;;24.05;13.82;;;16.70;99.90;;;;;;5024874;28;20048;-62
2022/10/30 10:41:37;;;;;;;22.38;14.00;;;16.70;99.90;;;;;;5025066;28;20116;-66
2022/10/30 10:44:03;;;;;;;26.80;14.20;;;16.80;99.90;;;;;;5020063;28;20045;-62
2022/10/30 10:46:56;;;;;;;27.60;13.68;;;16.90;99.90;;;;;;5024414;28;20033;-62
2022/10/30 10:49:39;;;;;;;33.80;13.55;;;17.00;99.90;;;;;;5020186;28;20120;-62
2022/10/30 10:52:22;;;;;;;28.08;14.07;;;17.10;99.90;;;;;;5023554;28;20033;-62
2022/10/30 10:54:54;;;;;;;25.25;12.85;;;17.20;99.90;;;;;;5016978;28;20037;-62
2022/10/30 10:57:33;;;;;;;29.85;13.45;;;17.30;99.90;;;;;;5025011;28;20096;-62
2022/10/30 11:00:06;;;;;;;27.45;12.82;;;17.40;99.90;;;;;;5028944;28;20444;-65
2022/10/30 11:02:40;;;;;;;25.45;12.73;;;17.40;99.90;;;;;;5028887;28;20108;-62
2022/10/30 11:05:47;;;;;;;26.08;13.20;;;17.50;99.90;;;;;;5015285;28;20125;-62
2022/10/30 11:08:16;;;;;;;24.17;12.07;;;17.60;99.90;;;;;;4973280;28;20517;-62
2022/10/30 11:10:42;;;;;;;23.30;12.60;;;17.60;99.90;;;;;;5003975;28;20057;-62
2022/10/30 11:13:13;;;;;;;19.33;11.82;;;17.70;99.90;;;;;;5021638;28;20084;-62
2022/10/30 11:16:05;;;;;;;23.15;12.65;;;17.70;99.90;;;;;;5024100;28;20041;-64
2022/10/30 11:18:32;;;;;;;27.10;11.27;;;17.70;99.90;;;;;;5016788;28;20033;-63
2022/10/30 11:21:12;;;;;;;24.23;12.27;;;17.80;99.90;;;;;;5022925;28;20129;-62
2022/10/30 11:23:43;;;;;;;25.17;10.93;;;17.80;99.90;;;;;;5014354;28;20042;-62
2022/10/30 11:26:19;;;;;;;22.23;11.43;;;17.90;99.90;;;;;;5024149;28;20046;-65
2022/10/30 11:28:49;;;;;;;23.10;10.35;;;17.90;99.90;;;;;;5019959;28;20286;-62
2022/10/30 11:31:19;;;;;;;21.33;10.70;;;18.00;99.90;;;;;;5024710;28;20041;-62
2022/10/30 11:33:46;;;;;;;20.23;11.07;;;18.20;99.90;;;;;;5027354;28;20056;-62
2022/10/30 11:36:15;;;;;;;21.70;10.70;;;18.30;99.90;;;;;;5019915;28;20096;-63
2022/10/30 11:38:41;;;;;;;22.00;12.10;;;18.40;99.90;;;;;;5025838;28;20038;-62
2022/10/30 11:41:09;;;;;;;20.60;10.98;;;18.40;99.90;;;;;;5022985;28;20507;-62
2022/10/30 11:43:38;;;;;;;24.40;11.85;;;18.50;99.90;;;;;;5014051;28;20084;-62
2022/10/30 11:46:08;;;;;;;20.20;11.18;;;18.60;99.90;;;;;;5019123;28;20488;-66
2022/10/30 11:48:36;;;;;;;27.55;11.70;;;18.60;99.90;;;;;;5015015;28;20393;-66
2022/10/30 11:51:04;;;;;;;30.77;12.05;;;18.60;99.90;;;;;;5024577;28;20099;-63
2022/10/30 11:53:34;;;;;;;22.85;11.02;;;18.60;99.90;;;;;;5027313;28;20343;-62
2022/10/30 11:56:01;;;;;;;22.75;11.32;;;18.60;99.90;;;;;;5020116;28;20404;-62
2022/10/30 11:58:37;;;;;;;18.42;9.90;;;18.60;99.90;;;;;;5016016;28;20041;-62
2022/10/30 12:01:15;;;;;;;18.13;9.73;;;18.60;99.90;;;;;;5017627;28;20042;-62
2022/10/30 12:03:41;;;;;;;21.65;9.88;;;18.60;99.90;;;;;;5015311;28;20050;-62
2022/10/30 12:06:19;;;;;;;21.35;9.88;;;18.70;99.90;;;;;;5022109;28;20046;-62
2022/10/30 12:09:09;;;;;;;17.90;10.18;;;18.70;99.90;;;;;;5021864;28;20042;-62
2022/10/30 12:11:36;;;;;;;17.60;10.02;;;18.80;99.90;;;;;;5020572;28;20192;-62
2022/10/30 12:14:02;;;;;;;14.85;10.48;;;18.80;99.90;;;;;;5017081;28;20442;-62
2022/10/30 12:16:29;;;;;;;23.83;10.45;;;18.80;99.90;;;;;;5021244;28;20421;-63
2022/10/30 12:19:04;;;;;;;23.58;10.60;;;18.80;99.90;;;;;;5025089;28;20044;-66
2022/10/30 12:21:39;;;;;;;19.38;10.27;;;18.80;99.90;;;;;;5018307;28;20065;-62
2022/10/30 12:24:12;;;;;;;22.60;10.55;;;18.80;99.90;;;;;;5029097;28;20053;-63
2022/10/30 12:26:39;;;;;;;19.65;11.32;;;18.80;99.90;;;;;;5028809;28;20073;-62
2022/10/30 12:29:13;;;;;;;19.80;10.48;;;18.80;99.90;;;;;;5024941;28;20041;-62
2022/10/30 12:31:50;;;;;;;22.60;10.75;;;18.80;99.90;;;;;;5027453;28;20037;-65
2022/10/30 12:34:21;;;;;;;19.90;10.15;;;18.90;99.90;;;;;;5023785;28;20045;-62
2022/10/30 12:36:55;;;;;;;19.95;10.52;;;18.90;99.90;;;;;;5027581;28;20041;-63
2022/10/30 12:39:32;;;;;;;19.50;10.10;;;19.00;99.90;;;;;;5017321;28;20030;-65
2022/10/30 12:42:00;;;;;;;21.98;9.68;;;19.00;99.90;;;;;;5022065;28;20384;-62